Time;durP1;ratioP1;P1;durP2;ratioP2;P2;SDS_P1;SDS_P2;PMS_P1;PMS_P2;Temp;Humidity;BMP_temperature;BMP_pressure;BME280_temperature;BME280_humidity;BME280_pressure;Samples;Min_cycle;Max_cycle;Signal;HPM_P1;HPM_P2
2021/11/18 00:03:28;;;;;;;52.72;17.08;;;5.90;99.90;;;;;;12253538;28;20054;-88
2021/11/18 00:09:30;;;;;;;58.58;18.58;;;5.90;99.90;;;;;;12253318;28;20051;-89
2021/11/18 00:15:34;;;;;;;48.63;17.50;;;5.90;99.90;;;;;;12263982;28;20109;-87
2021/11/18 00:21:39;;;;;;;44.97;18.15;;;5.90;99.90;;;;;;12263595;28;20101;-88
2021/11/18 00:27:43;;;;;;;50.80;17.33;;;6.00;99.90;;;;;;12254587;28;20103;-88
2021/11/18 00:33:45;;;;;;;40.10;15.87;;;6.10;99.90;;;;;;12245128;28;20162;-89
2021/11/18 00:39:47;;;;;;;49.05;17.17;;;6.10;99.90;;;;;;12251925;28;20093;-89
2021/11/18 00:45:50;;;;;;;42.47;16.48;;;6.00;99.90;;;;;;12241153;28;20055;-89
2021/11/18 00:51:52;;;;;;;51.63;17.35;;;6.00;99.90;;;;;;12240915;28;20503;-87
2021/11/18 00:57:57;;;;;;;47.65;16.63;;;5.90;99.90;;;;;;12249361;28;21071;-89
2021/11/18 01:03:59;;;;;;;44.10;16.83;;;5.80;99.90;;;;;;12258624;28;20092;-89
2021/11/18 01:10:04;;;;;;;44.08;16.65;;;5.90;99.90;;;;;;12247544;28;20550;-90
2021/11/18 01:16:08;;;;;;;37.83;16.10;;;5.90;99.90;;;;;;12241991;28;21880;-88
2021/11/18 01:22:10;;;;;;;45.05;16.55;;;5.90;99.90;;;;;;12250731;28;20047;-89
2021/11/18 01:28:13;;;;;;;54.28;16.80;;;5.90;99.90;;;;;;12244709;28;20056;-89
2021/11/18 01:34:16;;;;;;;47.67;18.38;;;6.00;99.90;;;;;;12249828;28;20153;-87
2021/11/18 01:40:21;;;;;;;37.67;15.57;;;6.00;99.90;;;;;;12247563;28;20055;-89
2021/11/18 01:46:28;;;;;;;46.65;15.85;;;6.10;99.90;;;;;;12250228;28;20056;-88
2021/11/18 01:52:33;;;;;;;40.13;15.35;;;6.10;99.90;;;;;;12250415;28;20081;-87
2021/11/18 01:58:36;;;;;;;39.65;15.63;;;6.20;99.90;;;;;;12251400;28;20067;-88
2021/11/18 02:04:55;;;;;;;40.42;13.50;;;6.10;99.90;;;;;;12251046;28;20054;-88
2021/11/18 02:11:02;;;;;;;45.85;15.82;;;6.10;99.90;;;;;;12241103;28;20047;-88
2021/11/18 02:17:08;;;;;;;37.40;15.15;;;6.10;99.90;;;;;;12246199;28;20047;-87
2021/11/18 02:23:23;;;;;;;37.85;14.13;;;6.00;99.90;;;;;;12247847;28;20043;-87
2021/11/18 02:29:25;;;;;;;46.72;15.30;;;6.10;99.90;;;;;;12242325;28;20463;-88
2021/11/18 02:35:30;;;;;;;40.70;14.85;;;6.20;99.90;;;;;;12243474;28;20047;-88
2021/11/18 02:41:33;;;;;;;;;;;6.20;99.90;;;;;;12254702;28;20052;-89
2021/11/18 02:47:34;;;;;;;36.75;13.32;;;6.20;99.90;;;;;;12258589;28;19969;-88
2021/11/18 02:53:37;;;;;;;38.58;14.30;;;6.10;99.90;;;;;;12242052;28;20047;-87
2021/11/18 02:59:39;;;;;;;33.28;13.85;;;6.20;99.90;;;;;;12238444;28;20051;-88
2021/11/18 03:05:41;;;;;;;36.88;14.25;;;6.20;99.90;;;;;;12244540;28;20516;-89
2021/11/18 03:11:45;;;;;;;33.17;14.10;;;6.20;99.90;;;;;;12238848;28;20134;-87
2021/11/18 03:17:47;;;;;;;37.13;14.40;;;6.30;99.90;;;;;;12250730;28;20055;-88
2021/11/18 03:23:50;;;;;;;33.10;13.38;;;6.30;99.90;;;;;;12281094;28;20409;-87
2021/11/18 03:29:52;;;;;;;37.53;14.38;;;6.30;99.90;;;;;;12252185;28;20048;-88
2021/11/18 03:35:55;;;;;;;39.67;14.48;;;6.20;99.90;;;;;;12286443;28;20058;-89
2021/11/18 03:42:01;;;;;;;41.57;14.67;;;6.20;99.90;;;;;;12256062;28;20758;-89
2021/11/18 03:48:04;;;;;;;44.47;15.65;;;6.30;99.90;;;;;;12268648;28;20476;-89
2021/11/18 03:54:09;;;;;;;42.67;14.80;;;6.30;99.90;;;;;;12249312;28;20161;-88
2021/11/18 04:00:20;;;;;;;34.30;15.30;;;6.30;99.90;;;;;;12257234;28;20463;-89
2021/11/18 04:06:23;;;;;;;38.83;16.17;;;6.30;99.90;;;;;;12259682;28;20048;-89
2021/11/18 04:12:25;;;;;;;38.53;16.67;;;6.30;99.90;;;;;;12262617;28;20106;-89
2021/11/18 04:18:28;;;;;;;44.20;17.25;;;6.30;99.90;;;;;;12251462;28;20059;-88
2021/11/18 04:24:34;;;;;;;48.30;17.70;;;6.30;99.90;;;;;;12251505;28;20039;-90
2021/11/18 04:30:58;;;;;;;41.17;18.75;;;6.20;99.90;;;;;;12251418;28;20105;-90
2021/11/18 04:37:01;;;;;;;36.03;18.02;;;6.20;99.90;;;;;;12248962;28;20067;-87
2021/11/18 04:43:04;;;;;;;39.70;18.95;;;6.10;99.90;;;;;;12229040;28;20054;-88
2021/11/18 04:49:06;;;;;;;44.80;19.42;;;6.10;99.90;;;;;;12263377;28;20051;-88
2021/11/18 04:55:19;;;;;;;38.20;19.77;;;6.10;99.90;;;;;;12254371;28;20055;-89
2021/11/18 05:01:21;;;;;;;39.65;20.55;;;6.10;99.90;;;;;;12263380;28;20063;-89
2021/11/18 05:07:23;;;;;;;45.95;22.75;;;6.00;99.90;;;;;;12247845;28;20051;-87
2021/11/18 05:13:28;;;;;;;49.50;23.40;;;6.00;99.90;;;;;;12237413;28;20047;-89
2021/11/18 05:19:31;;;;;;;;;;;5.90;99.90;;;;;;12246736;28;20114;-89
2021/11/18 05:25:34;;;;;;;49.00;25.00;;;6.00;99.90;;;;;;12265774;28;19933;-88
2021/11/18 05:31:36;;;;;;;57.90;26.27;;;6.00;99.90;;;;;;12266700;28;20058;-86
2021/11/18 05:37:38;;;;;;;68.43;28.25;;;6.10;99.90;;;;;;12266918;28;20532;-88
2021/11/18 05:43:42;;;;;;;57.05;29.95;;;6.10;99.90;;;;;;12263425;28;20503;-87
2021/11/18 05:49:44;;;;;;;68.57;30.90;;;6.10;99.90;;;;;;12261694;28;20474;-89
2021/11/18 05:55:47;;;;;;;57.15;31.48;;;6.10;99.90;;;;;;12267199;28;20105;-89
2021/11/18 06:01:49;;;;;;;77.15;33.90;;;6.20;99.90;;;;;;12266363;28;20142;-88
2021/11/18 06:07:52;;;;;;;66.35;34.17;;;6.20;99.90;;;;;;12246065;28;20055;-90
2021/11/18 06:13:54;;;;;;;71.90;33.65;;;6.20;99.90;;;;;;12229766;28;20051;-89
2021/11/18 06:19:59;;;;;;;69.82;36.35;;;6.30;99.90;;;;;;12245333;28;20059;-89
2021/11/18 06:26:01;;;;;;;70.65;35.00;;;6.20;99.90;;;;;;12255643;28;20576;-88
2021/11/18 06:32:06;;;;;;;83.10;35.50;;;6.30;99.90;;;;;;12235952;28;20204;-89
2021/11/18 06:38:08;;;;;;;84.13;35.90;;;6.30;99.90;;;;;;12233173;28;20049;-88
2021/11/18 06:44:11;;;;;;;67.97;33.75;;;6.30;99.90;;;;;;12234035;28;20126;-88
2021/11/18 06:50:13;;;;;;;76.43;35.13;;;6.30;99.90;;;;;;12252136;28;20055;-88
2021/11/18 06:56:16;;;;;;;74.45;36.17;;;6.30;99.90;;;;;;12256314;28;20066;-86
2021/11/18 07:02:18;;;;;;;79.25;36.60;;;6.40;99.90;;;;;;12252289;28;20043;-89
2021/11/18 07:08:20;;;;;;;72.50;36.88;;;6.40;99.90;;;;;;12256273;28;20070;-87
2021/11/18 07:14:23;;;;;;;70.40;34.75;;;6.40;99.90;;;;;;12240565;28;20082;-87
2021/11/18 07:20:26;;;;;;;67.63;34.72;;;6.50;99.90;;;;;;12258130;28;20062;-87
2021/11/18 07:26:29;;;;;;;72.47;36.78;;;6.50;99.90;;;;;;12278811;28;20046;-88
2021/11/18 07:32:31;;;;;;;74.60;37.70;;;6.40;99.90;;;;;;12266073;28;20106;-88
2021/11/18 07:38:37;;;;;;;77.65;37.47;;;6.50;99.90;;;;;;12249777;28;20105;-89
2021/11/18 07:44:39;;;;;;;73.85;34.47;;;6.50;99.90;;;;;;12261830;28;20070;-88
2021/11/18 07:50:44;;;;;;;80.85;37.50;;;6.50;99.90;;;;;;12242523;28;20088;-88
2021/11/18 07:56:46;;;;;;;71.35;35.42;;;6.50;99.90;;;;;;12266326;28;20113;-89
2021/11/18 08:02:48;;;;;;;74.30;37.88;;;6.50;99.90;;;;;;12243569;28;21239;-88
2021/11/18 08:08:51;;;;;;;70.35;35.58;;;6.60;99.90;;;;;;12247406;28;20101;-87
2021/11/18 08:14:53;;;;;;;71.05;34.70;;;6.70;99.90;;;;;;12253357;28;20058;-88
2021/11/18 08:20:55;;;;;;;66.63;34.30;;;6.70;99.90;;;;;;12267190;28;20055;-88
2021/11/18 08:26:59;;;;;;;71.40;34.42;;;6.80;99.90;;;;;;12251201;28;20051;-87
2021/11/18 08:33:05;;;;;;;65.13;34.67;;;7.00;99.90;;;;;;12254245;28;20047;-88
2021/11/18 08:39:19;;;;;;;62.17;33.78;;;7.00;99.90;;;;;;12252453;28;20059;-87
2021/11/18 08:45:21;;;;;;;62.08;33.38;;;7.00;99.90;;;;;;12260201;28;20054;-89
2021/11/18 08:51:23;;;;;;;64.07;31.98;;;7.10;99.90;;;;;;12246819;28;20383;-89
2021/11/18 08:57:25;;;;;;;60.70;31.95;;;7.30;99.90;;;;;;12256131;28;20577;-89
2021/11/18 09:03:33;;;;;;;61.53;30.20;;;7.30;99.90;;;;;;12249970;28;20062;-87
2021/11/18 09:09:37;;;;;;;61.17;31.27;;;7.40;99.90;;;;;;12247360;28;20082;-88
2021/11/18 09:15:40;;;;;;;59.22;29.95;;;7.40;99.90;;;;;;12223625;28;20129;-87
2021/11/18 09:21:43;;;;;;;65.95;28.92;;;7.40;99.90;;;;;;12248645;28;20047;-87
2021/11/18 09:27:51;;;;;;;58.38;28.58;;;7.50;99.90;;;;;;12252542;28;20968;-89
2021/11/18 09:34:02;;;;;;;56.22;26.42;;;7.70;99.90;;;;;;12289539;28;20385;-87
2021/11/18 09:40:09;;;;;;;55.25;25.85;;;7.70;99.90;;;;;;12239929;28;20121;-88
2021/11/18 09:46:17;;;;;;;55.17;26.55;;;7.80;99.90;;;;;;12247629;28;20059;-88
2021/11/18 09:52:40;;;;;;;54.50;24.02;;;7.80;99.90;;;;;;12248439;28;20050;-89
2021/11/18 09:59:18;;;;;;;46.88;23.77;;;7.90;99.90;;;;;;12246291;28;20480;-88
2021/11/18 10:05:23;;;;;;;57.00;23.98;;;8.00;99.90;;;;;;12245947;28;20336;-88
2021/11/18 10:11:43;;;;;;;47.03;22.30;;;8.10;99.90;;;;;;12259369;28;20440;-89
2021/11/18 10:17:50;;;;;;;51.63;22.30;;;8.00;99.90;;;;;;12231269;28;20059;-89
2021/11/18 10:23:58;;;;;;;44.08;20.48;;;8.10;99.90;;;;;;12255325;28;20051;-90
2021/11/18 10:30:18;;;;;;;44.47;19.45;;;8.30;99.90;;;;;;12247722;28;20055;-89
2021/11/18 10:36:59;;;;;;;39.63;18.88;;;8.50;99.90;;;;;;12245485;28;20178;-88
2021/11/18 10:43:13;;;;;;;37.70;17.73;;;8.90;99.90;;;;;;12237190;28;20110;-88
2021/11/18 10:49:29;;;;;;;33.90;16.57;;;9.10;99.90;;;;;;12235863;28;20046;-90
2021/11/18 10:55:40;;;;;;;35.22;15.93;;;9.40;99.90;;;;;;12250869;28;20066;-89
2021/11/18 11:01:48;;;;;;;37.60;15.68;;;9.20;99.90;;;;;;12263011;28;20570;-89
2021/11/18 11:07:51;;;;;;;36.35;16.02;;;9.10;99.90;;;;;;12270360;28;20038;-90
2021/11/18 11:14:32;;;;;;;33.88;14.02;;;8.90;99.90;;;;;;12234850;28;20519;-87
2021/11/18 11:20:34;;;;;;;35.10;15.15;;;8.90;99.90;;;;;;12234048;28;20157;-88
2021/11/18 11:27:02;;;;;;;37.28;14.60;;;9.00;99.90;;;;;;12242831;28;20439;-88
2021/11/18 11:33:29;;;;;;;37.63;13.52;;;9.20;99.90;;;;;;12256798;28;20039;-88
2021/11/18 11:39:51;;;;;;;33.70;13.00;;;9.30;99.90;;;;;;12248212;28;20451;-90
2021/11/18 11:46:23;;;;;;;33.42;12.02;;;9.30;99.90;;;;;;12249427;28;20074;-88
2021/11/18 11:52:48;;;;;;;29.65;11.68;;;9.50;99.90;;;;;;12247794;28;20058;-89
2021/11/18 11:58:54;;;;;;;;;;;9.60;99.90;;;;;;12253036;28;20050;-91
2021/11/18 12:05:16;;;;;;;29.90;11.50;;;9.40;99.90;;;;;;12262177;28;19923;-89
2021/11/18 12:11:42;;;;;;;35.25;11.55;;;9.40;99.90;;;;;;12236750;28;20047;-88
2021/11/18 12:18:10;;;;;;;35.83;11.95;;;9.50;99.90;;;;;;12228240;28;20138;-89
2021/11/18 12:24:25;;;;;;;30.83;10.05;;;9.70;99.90;;;;;;12243707;28;20057;-91
2021/11/18 12:30:35;;;;;;;30.25;9.43;;;9.60;99.90;;;;;;12259183;28;20043;-91
2021/11/18 12:36:56;;;;;;;23.52;8.38;;;9.70;99.90;;;;;;12239820;28;20055;-91
2021/11/18 12:43:00;;;;;;;22.70;7.88;;;9.70;99.90;;;;;;12242851;28;20175;-90
2021/11/18 12:49:10;;;;;;;25.58;7.93;;;10.00;99.90;;;;;;12259989;28;20047;-90
2021/11/18 12:55:18;;;;;;;21.75;7.80;;;10.10;99.90;;;;;;12269632;28;20165;-89
2021/11/18 13:01:22;;;;;;;23.33;7.20;;;9.90;99.90;;;;;;12256877;28;20047;-89
2021/11/18 13:07:36;;;;;;;22.90;7.47;;;9.80;99.90;;;;;;12251770;28;20108;-89
2021/11/18 13:13:42;;;;;;;23.87;7.03;;;9.80;99.90;;;;;;12246032;28;20204;-88
2021/11/18 13:19:43;;;;;;;30.63;8.15;;;9.80;99.90;;;;;;12247311;28;20620;-91
2021/11/18 13:25:48;;;;;;;23.35;7.43;;;10.10;99.90;;;;;;12254663;28;20047;-90
2021/11/18 13:32:03;;;;;;;23.70;7.77;;;9.80;99.90;;;;;;12265489;28;20067;-91
2021/11/18 13:38:30;;;;;;;20.75;6.47;;;9.60;99.90;;;;;;12244755;28;20051;-90
2021/11/18 13:44:36;;;;;;;24.63;7.97;;;9.60;99.90;;;;;;12262038;28;20109;-89
2021/11/18 13:50:44;;;;;;;20.55;7.05;;;9.60;99.90;;;;;;12245310;28;20170;-89
2021/11/18 13:57:12;;;;;;;23.10;7.47;;;9.70;99.90;;;;;;12240826;28;20067;-90
2021/11/18 14:03:28;;;;;;;30.40;7.53;;;9.60;99.90;;;;;;12236148;28;20055;-89
2021/11/18 14:09:37;;;;;;;25.30;6.82;;;9.60;99.90;;;;;;12258254;28;20688;-89
2021/11/18 14:16:01;;;;;;;25.00;6.00;;;9.60;99.90;;;;;;12255976;28;20137;-89
2021/11/18 14:22:28;;;;;;;21.70;6.18;;;9.50;99.90;;;;;;12241525;28;20562;-89
2021/11/18 14:28:38;;;;;;;21.35;5.68;;;9.50;99.90;;;;;;12236967;28;20050;-88
2021/11/18 14:35:16;;;;;;;22.60;6.35;;;9.50;99.90;;;;;;12242767;28;20052;-90
2021/11/18 14:41:34;;;;;;;18.40;6.00;;;9.40;99.90;;;;;;12231690;28;20451;-90
2021/11/18 14:47:45;;;;;;;22.98;6.03;;;9.40;99.90;;;;;;12257664;28;20114;-90
2021/11/18 14:53:49;;;;;;;29.63;6.88;;;9.40;99.90;;;;;;12237409;28;20134;-89
2021/11/18 14:59:54;;;;;;;25.92;6.10;;;9.40;99.90;;;;;;12238661;28;20070;-89
2021/11/18 15:05:58;;;;;;;26.17;6.50;;;9.40;99.90;;;;;;12252502;28;20126;-89
2021/11/18 15:12:07;;;;;;;18.85;6.63;;;9.30;99.90;;;;;;12243440;28;20415;-87
2021/11/18 15:18:12;;;;;;;28.48;6.70;;;9.30;99.90;;;;;;12264275;28;20055;-90
2021/11/18 15:24:21;;;;;;;21.50;5.90;;;9.30;99.90;;;;;;12247152;28;20043;-90
2021/11/18 15:30:31;;;;;;;21.08;5.93;;;9.40;99.90;;;;;;12238721;28;20055;-88
2021/11/18 15:36:34;;;;;;;22.60;6.30;;;9.30;99.90;;;;;;12251178;28;20051;-89
2021/11/18 15:42:37;;;;;;;18.65;5.82;;;9.30;99.90;;;;;;12261780;28;20518;-89
2021/11/18 15:48:40;;;;;;;18.60;5.72;;;9.30;99.90;;;;;;12239452;28;20138;-91
2021/11/18 15:54:42;;;;;;;27.17;5.50;;;9.20;99.90;;;;;;12260425;28;20117;-89
2021/11/18 16:00:47;;;;;;;21.42;5.38;;;9.20;99.90;;;;;;12257046;28;20081;-89
2021/11/18 16:06:55;;;;;;;17.17;4.75;;;9.10;99.90;;;;;;12244972;28;20338;-89
2021/11/18 16:13:03;;;;;;;25.77;5.00;;;9.10;99.90;;;;;;12265352;28;20074;-88
2021/11/18 16:19:07;;;;;;;20.65;4.80;;;9.20;99.90;;;;;;12294591;28;20050;-90
2021/11/18 16:25:13;;;;;;;25.15;5.68;;;9.10;99.90;;;;;;12281128;28;20055;-88
2021/11/18 16:31:15;;;;;;;17.23;5.55;;;9.00;99.90;;;;;;12251710;28;20117;-90
2021/11/18 16:37:25;;;;;;;19.95;5.22;;;9.10;99.90;;;;;;12262851;28;20504;-90
2021/11/18 16:43:27;;;;;;;16.52;4.50;;;9.10;99.90;;;;;;12261388;28;20105;-91
2021/11/18 16:49:29;;;;;;;20.83;4.97;;;9.10;99.90;;;;;;12248089;28;20121;-88
2021/11/18 16:55:36;;;;;;;20.20;4.60;;;9.10;99.90;;;;;;12251537;28;20059;-89
2021/11/18 17:01:52;;;;;;;20.60;4.80;;;9.10;99.90;;;;;;12264668;28;20050;-89
2021/11/18 17:07:56;;;;;;;16.50;4.70;;;9.10;99.90;;;;;;12263797;28;20048;-90
2021/11/18 17:14:00;;;;;;;27.55;5.80;;;9.00;99.90;;;;;;12266416;28;20456;-90
2021/11/18 17:20:05;;;;;;;20.45;4.70;;;9.00;99.90;;;;;;12261154;28;20059;-88
2021/11/18 17:26:08;;;;;;;20.88;5.00;;;9.00;99.90;;;;;;12254371;28;20609;-90
2021/11/18 17:32:12;;;;;;;22.42;5.55;;;9.10;99.90;;;;;;12232266;28;20138;-91
2021/11/18 17:38:16;;;;;;;;;;;9.10;99.90;;;;;;12233737;28;20481;-88
2021/11/18 17:44:19;;;;;;;16.90;5.50;;;9.10;99.90;;;;;;12238642;28;19993;-89
2021/11/18 17:50:27;;;;;;;18.52;4.60;;;9.30;99.90;;;;;;12239216;28;20055;-89
2021/11/18 17:56:33;;;;;;;22.30;5.68;;;9.30;99.90;;;;;;12254069;28;20047;-88
2021/11/18 18:02:36;;;;;;;15.75;4.43;;;9.20;99.90;;;;;;12262379;28;20082;-90
2021/11/18 18:08:39;;;;;;;21.98;5.47;;;9.30;99.90;;;;;;12246958;28;20047;-87
2021/11/18 18:14:43;;;;;;;;;;;9.20;99.90;;;;;;12260444;28;20043;-87
2021/11/18 18:20:52;;;;;;;19.75;5.85;;;9.20;99.90;;;;;;12238957;28;19997;-89
2021/11/18 18:27:01;;;;;;;24.58;6.63;;;9.20;99.90;;;;;;12240299;28;20058;-88
2021/11/18 18:33:04;;;;;;;28.85;6.43;;;9.30;99.90;;;;;;12243055;28;20157;-90
2021/11/18 18:39:10;;;;;;;24.25;7.63;;;9.10;99.90;;;;;;12257994;28;20547;-91
2021/11/18 18:45:17;;;;;;;21.73;6.45;;;9.00;99.90;;;;;;12272400;28;20138;-91
2021/11/18 18:51:32;;;;;;;20.80;6.35;;;9.00;99.90;;;;;;12273468;28;20047;-91
2021/11/18 18:57:36;;;;;;;32.03;8.50;;;8.90;99.90;;;;;;12272960;28;20082;-91
2021/11/18 19:03:39;;;;;;;27.55;7.40;;;9.00;99.90;;;;;;12269264;28;20077;-91
2021/11/18 19:09:43;;;;;;;28.00;9.25;;;8.90;99.90;;;;;;12263854;28;20457;-90
2021/11/18 19:15:47;;;;;;;25.98;8.35;;;8.90;99.90;;;;;;12266953;28;20054;-90
2021/11/18 19:21:50;;;;;;;21.77;8.95;;;8.90;99.90;;;;;;12243409;28;20102;-89
2021/11/18 19:28:06;;;;;;;22.77;9.65;;;8.80;99.90;;;;;;12263157;28;20075;-88
2021/11/18 19:34:09;;;;;;;24.85;10.32;;;8.90;99.90;;;;;;12260788;28;20054;-89
2021/11/18 19:40:17;;;;;;;29.20;10.27;;;8.80;99.90;;;;;;12264166;28;20507;-88
2021/11/18 19:46:21;;;;;;;25.17;10.65;;;8.90;99.90;;;;;;12257069;28;20134;-89
2021/11/18 19:52:32;;;;;;;28.45;11.35;;;9.00;99.90;;;;;;12278218;28;20301;-86
2021/11/18 19:58:35;;;;;;;28.35;12.45;;;9.10;99.90;;;;;;12266412;28;20055;-89
2021/11/18 20:04:47;;;;;;;31.80;12.35;;;9.10;99.90;;;;;;12247263;28;20412;-90
2021/11/18 20:10:50;;;;;;;31.48;13.15;;;9.10;99.90;;;;;;12261941;28;20565;-89
2021/11/18 20:16:52;;;;;;;36.97;14.40;;;9.10;99.90;;;;;;12257158;28;20097;-90
2021/11/18 20:22:57;;;;;;;32.03;14.13;;;9.00;99.90;;;;;;12251058;28;20067;-89
2021/11/18 20:29:00;;;;;;;38.53;13.93;;;9.00;99.90;;;;;;12248778;28;20158;-89
2021/11/18 20:35:15;;;;;;;34.25;14.90;;;9.00;99.90;;;;;;12264756;28;20054;-90
2021/11/18 20:41:18;;;;;;;38.65;15.52;;;9.00;99.90;;;;;;12268971;28;20142;-90
2021/11/18 20:47:22;;;;;;;32.40;15.10;;;9.00;99.90;;;;;;12263127;28;20159;-90
2021/11/18 20:53:24;;;;;;;39.20;16.40;;;9.10;99.90;;;;;;12244319;28;20051;-89
2021/11/18 20:59:27;;;;;;;45.67;17.40;;;9.20;99.90;;;;;;12252150;28;20047;-89
2021/11/18 21:05:33;;;;;;;50.38;19.35;;;9.30;99.90;;;;;;12257807;28;20055;-90
2021/11/18 21:11:35;;;;;;;39.10;19.88;;;9.20;99.90;;;;;;12247028;28;20385;-90
2021/11/18 21:17:38;;;;;;;47.40;19.85;;;9.20;99.90;;;;;;12248754;28;20065;-89
2021/11/18 21:23:42;;;;;;;47.42;21.52;;;9.30;99.90;;;;;;12253046;28;20058;-87
2021/11/18 21:29:51;;;;;;;62.77;22.13;;;9.20;99.90;;;;;;12262413;28;20130;-89
2021/11/18 21:35:57;;;;;;;43.75;21.95;;;9.30;99.90;;;;;;12249984;28;20109;-89
2021/11/18 21:41:59;;;;;;;48.28;21.75;;;9.30;99.90;;;;;;12246657;28;20078;-87
2021/11/18 21:48:32;;;;;;;45.40;23.42;;;9.40;99.90;;;;;;12243138;28;20058;-89
2021/11/18 21:54:49;;;;;;;53.60;23.73;;;9.40;99.90;;;;;;12243881;28;20081;-89
2021/11/18 22:01:00;;;;;;;58.75;24.90;;;9.30;99.90;;;;;;12255165;28;20039;-88
2021/11/18 22:07:15;;;;;;;54.38;23.42;;;9.30;99.90;;;;;;12246822;28;20405;-89
2021/11/18 22:13:17;;;;;;;60.47;24.58;;;9.40;99.90;;;;;;12246364;28;20049;-89
2021/11/18 22:19:19;;;;;;;58.90;27.23;;;9.30;99.90;;;;;;12239631;28;20573;-88
2021/11/18 22:25:23;;;;;;;63.72;25.55;;;9.30;99.90;;;;;;12243997;28;20436;-91
2021/11/18 22:31:30;;;;;;;61.45;26.55;;;9.20;99.90;;;;;;12242440;28;20086;-88
2021/11/18 22:37:32;;;;;;;72.28;26.38;;;9.20;99.90;;;;;;12253408;28;20047;-89
2021/11/18 22:43:34;;;;;;;57.47;26.00;;;9.20;99.90;;;;;;12246381;28;20138;-90
2021/11/18 22:49:37;;;;;;;68.90;27.35;;;9.10;99.90;;;;;;12255305;28;20201;-88
2021/11/18 22:55:40;;;;;;;62.20;27.90;;;9.10;99.90;;;;;;12253441;28;20058;-90
2021/11/18 23:02:10;;;;;;;76.65;28.50;;;9.00;99.90;;;;;;12237581;28;20433;-89
2021/11/18 23:08:13;;;;;;;72.75;30.55;;;9.00;99.90;;;;;;12252624;28;20058;-89
2021/11/18 23:14:15;;;;;;;70.30;29.48;;;9.00;99.90;;;;;;12221187;28;20444;-89
2021/11/18 23:20:20;;;;;;;69.97;30.20;;;8.90;99.90;;;;;;12265304;28;20097;-89
2021/11/18 23:26:22;;;;;;;68.53;30.23;;;8.90;99.90;;;;;;12227730;28;20097;-88
2021/11/18 23:32:27;;;;;;;79.40;31.75;;;9.00;99.90;;;;;;12245696;28;20129;-90
2021/11/18 23:38:30;;;;;;;67.18;33.33;;;8.90;99.90;;;;;;12245159;28;20061;-90
2021/11/18 23:44:32;;;;;;;73.00;32.88;;;8.90;99.90;;;;;;12245935;28;20388;-88
2021/11/18 23:50:38;;;;;;;79.78;32.63;;;8.90;99.90;;;;;;12267984;28;20499;-88
2021/11/18 23:56:42;;;;;;;69.03;31.77;;;8.90;99.90;;;;;;12260348;28;20740;-88
